sensor_id;sensor_type;location;lat;lon;timestamp;P1;durP1;ratioP1;P2;durP2;ratioP2
21675;SDS011;10999;51.332;9.458;2022-08-19T00:01:29;15.93;;;9.25;;
21675;SDS011;10999;51.332;9.458;2022-08-19T00:03:57;15.80;;;9.48;;
21675;SDS011;10999;51.332;9.458;2022-08-19T00:06:26;17.63;;;9.45;;
21675;SDS011;10999;51.332;9.458;2022-08-19T00:08:54;15.75;;;8.85;;
21675;SDS011;10999;51.332;9.458;2022-08-19T00:11:23;14.27;;;8.98;;
21675;SDS011;10999;51.332;9.458;2022-08-19T00:13:52;15.50;;;9.70;;
21675;SDS011;10999;51.332;9.458;2022-08-19T00:16:21;14.25;;;8.73;;
21675;SDS011;10999;51.332;9.458;2022-08-19T00:18:51;15.20;;;8.95;;
21675;SDS011;10999;51.332;9.458;2022-08-19T00:21:19;15.57;;;8.55;;
21675;SDS011;10999;51.332;9.458;2022-08-19T00:23:46;16.15;;;9.23;;
21675;SDS011;10999;51.332;9.458;2022-08-19T00:26:13;15.50;;;8.18;;
21675;SDS011;10999;51.332;9.458;2022-08-19T00:28:40;14.98;;;8.95;;
21675;SDS011;10999;51.332;9.458;2022-08-19T00:31:07;16.10;;;9.18;;
21675;SDS011;10999;51.332;9.458;2022-08-19T00:33:35;16.45;;;9.00;;
21675;SDS011;10999;51.332;9.458;2022-08-19T00:36:04;15.43;;;8.75;;
21675;SDS011;10999;51.332;9.458;2022-08-19T00:38:35;14.95;;;9.50;;
21675;SDS011;10999;51.332;9.458;2022-08-19T00:41:04;15.30;;;8.70;;
21675;SDS011;10999;51.332;9.458;2022-08-19T00:43:32;16.52;;;9.55;;
21675;SDS011;10999;51.332;9.458;2022-08-19T00:45:59;15.10;;;9.15;;
21675;SDS011;10999;51.332;9.458;2022-08-19T00:48:25;12.57;;;8.23;;
21675;SDS011;10999;51.332;9.458;2022-08-19T00:50:52;13.45;;;9.00;;
21675;SDS011;10999;51.332;9.458;2022-08-19T00:53:22;18.73;;;9.40;;
21675;SDS011;10999;51.332;9.458;2022-08-19T00:55:53;13.75;;;8.32;;
21675;SDS011;10999;51.332;9.458;2022-08-19T00:58:23;16.60;;;8.43;;
21675;SDS011;10999;51.332;9.458;2022-08-19T01:00:54;16.63;;;9.70;;
21675;SDS011;10999;51.332;9.458;2022-08-19T01:03:21;13.00;;;8.25;;
21675;SDS011;10999;51.332;9.458;2022-08-19T01:05:48;15.05;;;8.75;;
21675;SDS011;10999;51.332;9.458;2022-08-19T01:08:17;13.98;;;9.18;;
21675;SDS011;10999;51.332;9.458;2022-08-19T01:10:47;15.00;;;8.55;;
21675;SDS011;10999;51.332;9.458;2022-08-19T01:13:19;16.73;;;9.15;;
21675;SDS011;10999;51.332;9.458;2022-08-19T01:15:50;14.93;;;9.15;;
21675;SDS011;10999;51.332;9.458;2022-08-19T01:18:21;15.43;;;8.93;;
21675;SDS011;10999;51.332;9.458;2022-08-19T01:20:49;15.13;;;8.15;;
21675;SDS011;10999;51.332;9.458;2022-08-19T01:23:17;16.25;;;8.88;;
21675;SDS011;10999;51.332;9.458;2022-08-19T01:25:49;13.10;;;8.43;;
21675;SDS011;10999;51.332;9.458;2022-08-19T01:31:02;13.98;;;7.93;;
21675;SDS011;10999;51.332;9.458;2022-08-19T01:33:33;17.15;;;9.10;;
21675;SDS011;10999;51.332;9.458;2022-08-19T01:36:44;15.73;;;8.57;;
21675;SDS011;10999;51.332;9.458;2022-08-19T01:38:51;15.77;;;8.65;;
21675;SDS011;10999;51.332;9.458;2022-08-19T01:41:19;14.63;;;8.48;;
21675;SDS011;10999;51.332;9.458;2022-08-19T01:43:46;15.30;;;8.80;;
21675;SDS011;10999;51.332;9.458;2022-08-19T01:46:33;15.10;;;7.43;;
21675;SDS011;10999;51.332;9.458;2022-08-19T01:49:00;15.77;;;9.48;;
21675;SDS011;10999;51.332;9.458;2022-08-19T01:51:27;16.25;;;9.55;;
21675;SDS011;10999;51.332;9.458;2022-08-19T01:54:05;14.55;;;8.75;;
21675;SDS011;10999;51.332;9.458;2022-08-19T01:56:32;15.60;;;8.98;;
21675;SDS011;10999;51.332;9.458;2022-08-19T01:59:00;13.75;;;8.15;;
21675;SDS011;10999;51.332;9.458;2022-08-19T02:01:29;14.32;;;8.55;;
21675;SDS011;10999;51.332;9.458;2022-08-19T02:03:58;16.60;;;9.00;;
21675;SDS011;10999;51.332;9.458;2022-08-19T02:06:27;15.57;;;9.00;;
21675;SDS011;10999;51.332;9.458;2022-08-19T02:08:54;16.42;;;9.35;;
21675;SDS011;10999;51.332;9.458;2022-08-19T02:11:24;15.30;;;9.45;;
21675;SDS011;10999;51.332;9.458;2022-08-19T02:13:58;17.90;;;8.93;;
21675;SDS011;10999;51.332;9.458;2022-08-19T02:16:26;18.05;;;9.15;;
21675;SDS011;10999;51.332;9.458;2022-08-19T02:18:52;18.48;;;9.40;;
21675;SDS011;10999;51.332;9.458;2022-08-19T02:21:21;15.10;;;8.57;;
21675;SDS011;10999;51.332;9.458;2022-08-19T02:23:49;17.02;;;9.57;;
21675;SDS011;10999;51.332;9.458;2022-08-19T02:26:16;14.43;;;8.65;;
21675;SDS011;10999;51.332;9.458;2022-08-19T02:28:45;20.00;;;9.82;;
21675;SDS011;10999;51.332;9.458;2022-08-19T02:31:15;15.95;;;8.93;;
21675;SDS011;10999;51.332;9.458;2022-08-19T02:33:44;16.02;;;9.73;;
21675;SDS011;10999;51.332;9.458;2022-08-19T02:36:12;13.55;;;8.35;;
21675;SDS011;10999;51.332;9.458;2022-08-19T02:38:40;17.13;;;9.57;;
21675;SDS011;10999;51.332;9.458;2022-08-19T02:41:16;17.00;;;8.65;;
21675;SDS011;10999;51.332;9.458;2022-08-19T02:43:48;18.70;;;8.50;;
21675;SDS011;10999;51.332;9.458;2022-08-19T02:46:35;15.43;;;9.13;;
21675;SDS011;10999;51.332;9.458;2022-08-19T02:49:03;13.85;;;8.02;;
21675;SDS011;10999;51.332;9.458;2022-08-19T02:51:33;14.65;;;7.95;;
21675;SDS011;10999;51.332;9.458;2022-08-19T02:54:03;12.32;;;7.70;;
21675;SDS011;10999;51.332;9.458;2022-08-19T02:56:30;16.23;;;9.23;;
21675;SDS011;10999;51.332;9.458;2022-08-19T02:58:59;12.77;;;7.70;;
21675;SDS011;10999;51.332;9.458;2022-08-19T03:01:28;15.02;;;8.45;;
21675;SDS011;10999;51.332;9.458;2022-08-19T03:03:58;14.50;;;8.40;;
21675;SDS011;10999;51.332;9.458;2022-08-19T03:06:27;11.77;;;8.18;;
21675;SDS011;10999;51.332;9.458;2022-08-19T03:08:54;18.30;;;9.60;;
21675;SDS011;10999;51.332;9.458;2022-08-19T03:11:22;14.27;;;8.30;;
21675;SDS011;10999;51.332;9.458;2022-08-19T03:13:53;14.45;;;8.98;;
21675;SDS011;10999;51.332;9.458;2022-08-19T03:16:22;13.88;;;8.15;;
21675;SDS011;10999;51.332;9.458;2022-08-19T03:18:50;17.27;;;9.10;;
21675;SDS011;10999;51.332;9.458;2022-08-19T03:21:23;14.05;;;7.45;;
21675;SDS011;10999;51.332;9.458;2022-08-19T03:23:54;14.25;;;8.15;;
21675;SDS011;10999;51.332;9.458;2022-08-19T03:26:22;15.60;;;8.52;;
21675;SDS011;10999;51.332;9.458;2022-08-19T03:28:48;17.10;;;7.97;;
21675;SDS011;10999;51.332;9.458;2022-08-19T03:31:23;19.02;;;8.35;;
21675;SDS011;10999;51.332;9.458;2022-08-19T03:34:11;15.85;;;7.85;;
21675;SDS011;10999;51.332;9.458;2022-08-19T03:36:44;13.60;;;7.38;;
21675;SDS011;10999;51.332;9.458;2022-08-19T03:39:12;12.55;;;7.10;;
21675;SDS011;10999;51.332;9.458;2022-08-19T03:41:41;16.15;;;8.00;;
21675;SDS011;10999;51.332;9.458;2022-08-19T03:44:11;13.32;;;7.38;;
21675;SDS011;10999;51.332;9.458;2022-08-19T03:46:44;14.52;;;7.30;;
21675;SDS011;10999;51.332;9.458;2022-08-19T03:49:12;14.82;;;7.47;;
21675;SDS011;10999;51.332;9.458;2022-08-19T03:51:40;13.13;;;6.72;;
21675;SDS011;10999;51.332;9.458;2022-08-19T03:54:09;11.70;;;6.68;;
21675;SDS011;10999;51.332;9.458;2022-08-19T03:56:39;13.52;;;6.88;;
21675;SDS011;10999;51.332;9.458;2022-08-19T03:59:08;13.07;;;7.07;;
21675;SDS011;10999;51.332;9.458;2022-08-19T04:01:36;13.02;;;7.55;;
21675;SDS011;10999;51.332;9.458;2022-08-19T04:04:03;15.40;;;7.05;;
21675;SDS011;10999;51.332;9.458;2022-08-19T04:06:31;13.70;;;7.30;;
21675;SDS011;10999;51.332;9.458;2022-08-19T04:09:05;13.15;;;6.50;;
21675;SDS011;10999;51.332;9.458;2022-08-19T04:11:36;17.92;;;7.32;;
21675;SDS011;10999;51.332;9.458;2022-08-19T04:14:11;11.43;;;6.65;;
21675;SDS011;10999;51.332;9.458;2022-08-19T04:16:40;12.63;;;6.53;;
21675;SDS011;10999;51.332;9.458;2022-08-19T04:19:08;12.30;;;6.15;;
21675;SDS011;10999;51.332;9.458;2022-08-19T04:21:35;11.43;;;6.45;;
21675;SDS011;10999;51.332;9.458;2022-08-19T04:24:02;12.85;;;7.10;;
21675;SDS011;10999;51.332;9.458;2022-08-19T04:26:31;12.82;;;6.70;;
21675;SDS011;10999;51.332;9.458;2022-08-19T04:29:01;11.07;;;7.28;;
21675;SDS011;10999;51.332;9.458;2022-08-19T04:31:37;14.85;;;7.65;;
21675;SDS011;10999;51.332;9.458;2022-08-19T04:34:05;13.10;;;6.68;;
21675;SDS011;10999;51.332;9.458;2022-08-19T04:36:34;12.05;;;6.20;;
21675;SDS011;10999;51.332;9.458;2022-08-19T04:39:04;11.98;;;6.10;;
21675;SDS011;10999;51.332;9.458;2022-08-19T04:41:33;10.75;;;6.10;;
21675;SDS011;10999;51.332;9.458;2022-08-19T04:44:19;14.52;;;7.22;;
21675;SDS011;10999;51.332;9.458;2022-08-19T04:46:47;11.13;;;6.45;;
21675;SDS011;10999;51.332;9.458;2022-08-19T04:49:17;11.32;;;6.25;;
21675;SDS011;10999;51.332;9.458;2022-08-19T04:51:46;13.90;;;6.53;;
21675;SDS011;10999;51.332;9.458;2022-08-19T04:54:14;11.20;;;6.00;;
21675;SDS011;10999;51.332;9.458;2022-08-19T04:57:04;10.65;;;5.70;;
21675;SDS011;10999;51.332;9.458;2022-08-19T04:59:33;10.80;;;5.20;;
21675;SDS011;10999;51.332;9.458;2022-08-19T05:02:00;12.30;;;5.30;;
21675;SDS011;10999;51.332;9.458;2022-08-19T05:04:27;12.35;;;5.97;;
21675;SDS011;10999;51.332;9.458;2022-08-19T05:06:58;11.82;;;5.45;;
21675;SDS011;10999;51.332;9.458;2022-08-19T05:09:26;10.07;;;5.50;;
21675;SDS011;10999;51.332;9.458;2022-08-19T05:12:14;11.00;;;6.03;;
21675;SDS011;10999;51.332;9.458;2022-08-19T05:14:41;13.68;;;6.13;;
21675;SDS011;10999;51.332;9.458;2022-08-19T05:17:08;11.98;;;6.03;;
21675;SDS011;10999;51.332;9.458;2022-08-19T05:19:55;11.77;;;5.82;;
21675;SDS011;10999;51.332;9.458;2022-08-19T05:22:42;15.82;;;6.85;;
21675;SDS011;10999;51.332;9.458;2022-08-19T05:25:12;11.27;;;6.68;;
21675;SDS011;10999;51.332;9.458;2022-08-19T05:27:43;11.25;;;5.85;;
21675;SDS011;10999;51.332;9.458;2022-08-19T05:30:10;10.70;;;5.45;;
21675;SDS011;10999;51.332;9.458;2022-08-19T05:32:38;13.82;;;6.20;;
21675;SDS011;10999;51.332;9.458;2022-08-19T05:35:05;11.80;;;5.50;;
21675;SDS011;10999;51.332;9.458;2022-08-19T05:37:32;11.73;;;6.22;;
21675;SDS011;10999;51.332;9.458;2022-08-19T05:39:59;11.13;;;5.35;;
21675;SDS011;10999;51.332;9.458;2022-08-19T05:42:26;12.45;;;5.70;;
21675;SDS011;10999;51.332;9.458;2022-08-19T05:44:53;11.48;;;5.80;;
21675;SDS011;10999;51.332;9.458;2022-08-19T05:47:19;12.35;;;5.22;;
21675;SDS011;10999;51.332;9.458;2022-08-19T05:49:47;12.13;;;5.93;;
21675;SDS011;10999;51.332;9.458;2022-08-19T05:52:16;10.63;;;5.43;;
21675;SDS011;10999;51.332;9.458;2022-08-19T05:54:44;10.50;;;5.57;;
21675;SDS011;10999;51.332;9.458;2022-08-19T05:57:16;10.82;;;5.88;;
21675;SDS011;10999;51.332;9.458;2022-08-19T05:59:44;11.65;;;5.30;;
21675;SDS011;10999;51.332;9.458;2022-08-19T06:02:14;9.85;;;5.22;;
21675;SDS011;10999;51.332;9.458;2022-08-19T06:04:40;9.05;;;4.95;;
21675;SDS011;10999;51.332;9.458;2022-08-19T06:07:10;10.32;;;5.90;;
21675;SDS011;10999;51.332;9.458;2022-08-19T06:09:46;9.25;;;4.60;;
21675;SDS011;10999;51.332;9.458;2022-08-19T06:12:25;10.00;;;5.00;;
21675;SDS011;10999;51.332;9.458;2022-08-19T06:14:59;11.07;;;4.68;;
21675;SDS011;10999;51.332;9.458;2022-08-19T06:17:28;10.93;;;4.78;;
21675;SDS011;10999;51.332;9.458;2022-08-19T06:19:56;10.18;;;5.50;;
21675;SDS011;10999;51.332;9.458;2022-08-19T06:22:24;9.50;;;4.03;;
21675;SDS011;10999;51.332;9.458;2022-08-19T06:24:51;10.55;;;4.50;;
21675;SDS011;10999;51.332;9.458;2022-08-19T06:27:20;9.02;;;4.60;;
21675;SDS011;10999;51.332;9.458;2022-08-19T06:29:47;8.95;;;4.60;;
21675;SDS011;10999;51.332;9.458;2022-08-19T06:32:15;9.02;;;4.50;;
21675;SDS011;10999;51.332;9.458;2022-08-19T06:34:42;9.18;;;4.55;;
21675;SDS011;10999;51.332;9.458;2022-08-19T06:37:10;10.07;;;4.63;;
21675;SDS011;10999;51.332;9.458;2022-08-19T06:39:38;8.70;;;4.65;;
21675;SDS011;10999;51.332;9.458;2022-08-19T06:42:07;9.35;;;4.63;;
21675;SDS011;10999;51.332;9.458;2022-08-19T06:44:37;9.00;;;4.50;;
21675;SDS011;10999;51.332;9.458;2022-08-19T06:47:09;8.75;;;4.30;;
21675;SDS011;10999;51.332;9.458;2022-08-19T06:49:40;9.27;;;4.93;;
21675;SDS011;10999;51.332;9.458;2022-08-19T06:52:09;9.18;;;5.53;;
21675;SDS011;10999;51.332;9.458;2022-08-19T06:54:40;10.88;;;4.72;;
21675;SDS011;10999;51.332;9.458;2022-08-19T06:57:22;10.50;;;5.57;;
21675;SDS011;10999;51.332;9.458;2022-08-19T06:59:50;9.65;;;5.20;;
21675;SDS011;10999;51.332;9.458;2022-08-19T07:02:17;10.15;;;4.68;;
21675;SDS011;10999;51.332;9.458;2022-08-19T07:04:44;10.30;;;5.55;;
21675;SDS011;10999;51.332;9.458;2022-08-19T07:07:12;9.90;;;4.97;;
21675;SDS011;10999;51.332;9.458;2022-08-19T07:09:46;11.07;;;4.88;;
21675;SDS011;10999;51.332;9.458;2022-08-19T07:12:26;8.80;;;4.60;;
21675;SDS011;10999;51.332;9.458;2022-08-19T07:14:55;8.65;;;4.25;;
21675;SDS011;10999;51.332;9.458;2022-08-19T07:17:23;10.77;;;5.03;;
21675;SDS011;10999;51.332;9.458;2022-08-19T07:19:50;10.13;;;5.03;;
21675;SDS011;10999;51.332;9.458;2022-08-19T07:22:19;10.80;;;4.70;;
21675;SDS011;10999;51.332;9.458;2022-08-19T07:24:49;11.30;;;4.82;;
21675;SDS011;10999;51.332;9.458;2022-08-19T07:27:17;9.20;;;4.68;;
21675;SDS011;10999;51.332;9.458;2022-08-19T07:29:50;8.82;;;4.70;;
21675;SDS011;10999;51.332;9.458;2022-08-19T07:32:22;8.25;;;4.13;;
21675;SDS011;10999;51.332;9.458;2022-08-19T07:34:53;9.98;;;4.65;;
21675;SDS011;10999;51.332;9.458;2022-08-19T07:37:21;10.32;;;5.25;;
21675;SDS011;10999;51.332;9.458;2022-08-19T07:39:48;8.07;;;3.97;;
21675;SDS011;10999;51.332;9.458;2022-08-19T07:42:15;9.38;;;5.13;;
21675;SDS011;10999;51.332;9.458;2022-08-19T07:44:43;9.35;;;4.55;;
21675;SDS011;10999;51.332;9.458;2022-08-19T07:47:15;8.82;;;4.82;;
21675;SDS011;10999;51.332;9.458;2022-08-19T07:50:03;9.10;;;4.80;;
21675;SDS011;10999;51.332;9.458;2022-08-19T07:52:33;12.07;;;5.13;;
21675;SDS011;10999;51.332;9.458;2022-08-19T07:55:00;8.40;;;4.72;;
21675;SDS011;10999;51.332;9.458;2022-08-19T07:57:29;9.35;;;4.80;;
21675;SDS011;10999;51.332;9.458;2022-08-19T07:59:56;8.10;;;3.92;;
21675;SDS011;10999;51.332;9.458;2022-08-19T08:02:23;7.82;;;4.13;;
21675;SDS011;10999;51.332;9.458;2022-08-19T08:04:50;7.75;;;3.80;;
21675;SDS011;10999;51.332;9.458;2022-08-19T08:07:35;8.60;;;4.22;;
21675;SDS011;10999;51.332;9.458;2022-08-19T08:10:20;8.82;;;4.22;;
21675;SDS011;10999;51.332;9.458;2022-08-19T08:12:49;7.95;;;3.65;;
21675;SDS011;10999;51.332;9.458;2022-08-19T08:15:35;8.45;;;4.13;;
21675;SDS011;10999;51.332;9.458;2022-08-19T08:18:08;7.45;;;4.18;;
21675;SDS011;10999;51.332;9.458;2022-08-19T08:20:35;12.43;;;4.97;;
21675;SDS011;10999;51.332;9.458;2022-08-19T08:23:02;8.13;;;4.63;;
21675;SDS011;10999;51.332;9.458;2022-08-19T08:25:48;8.63;;;4.38;;
21675;SDS011;10999;51.332;9.458;2022-08-19T08:28:15;8.05;;;4.55;;
21675;SDS011;10999;51.332;9.458;2022-08-19T08:30:43;8.05;;;4.05;;
21675;SDS011;10999;51.332;9.458;2022-08-19T08:33:16;9.05;;;4.43;;
21675;SDS011;10999;51.332;9.458;2022-08-19T08:35:59;8.20;;;4.05;;
21675;SDS011;10999;51.332;9.458;2022-08-19T08:38:36;8.02;;;4.10;;
21675;SDS011;10999;51.332;9.458;2022-08-19T08:41:09;9.48;;;4.30;;
21675;SDS011;10999;51.332;9.458;2022-08-19T08:43:54;9.77;;;4.40;;
21675;SDS011;10999;51.332;9.458;2022-08-19T08:46:25;10.73;;;4.70;;
21675;SDS011;10999;51.332;9.458;2022-08-19T08:51:43;7.65;;;4.05;;
21675;SDS011;10999;51.332;9.458;2022-08-19T08:54:24;9.57;;;4.22;;
21675;SDS011;10999;51.332;9.458;2022-08-19T08:56:56;8.73;;;4.03;;
21675;SDS011;10999;51.332;9.458;2022-08-19T08:59:24;6.78;;;3.65;;
21675;SDS011;10999;51.332;9.458;2022-08-19T09:01:58;8.15;;;4.03;;
21675;SDS011;10999;51.332;9.458;2022-08-19T09:04:26;8.38;;;3.67;;
21675;SDS011;10999;51.332;9.458;2022-08-19T09:07:16;8.93;;;4.18;;
21675;SDS011;10999;51.332;9.458;2022-08-19T09:13:28;7.65;;;4.10;;
21675;SDS011;10999;51.332;9.458;2022-08-19T09:16:07;8.38;;;3.95;;
21675;SDS011;10999;51.332;9.458;2022-08-19T09:21:16;9.05;;;4.22;;
21675;SDS011;10999;51.332;9.458;2022-08-19T09:23:43;9.20;;;3.60;;
21675;SDS011;10999;51.332;9.458;2022-08-19T09:26:11;7.13;;;3.08;;
21675;SDS011;10999;51.332;9.458;2022-08-19T09:28:42;7.78;;;3.65;;
21675;SDS011;10999;51.332;9.458;2022-08-19T09:31:14;9.55;;;3.30;;
21675;SDS011;10999;51.332;9.458;2022-08-19T09:33:43;7.88;;;3.40;;
21675;SDS011;10999;51.332;9.458;2022-08-19T09:36:13;7.97;;;4.07;;
21675;SDS011;10999;51.332;9.458;2022-08-19T09:39:00;8.25;;;3.83;;
21675;SDS011;10999;51.332;9.458;2022-08-19T09:41:27;7.50;;;4.00;;
21675;SDS011;10999;51.332;9.458;2022-08-19T09:43:55;7.20;;;4.20;;
21675;SDS011;10999;51.332;9.458;2022-08-19T09:46:25;9.55;;;4.35;;
21675;SDS011;10999;51.332;9.458;2022-08-19T09:48:53;9.20;;;4.03;;
21675;SDS011;10999;51.332;9.458;2022-08-19T09:51:22;9.57;;;3.42;;
21675;SDS011;10999;51.332;9.458;2022-08-19T09:53:51;9.05;;;4.35;;
21675;SDS011;10999;51.332;9.458;2022-08-19T09:56:21;7.88;;;3.90;;
21675;SDS011;10999;51.332;9.458;2022-08-19T09:58:49;8.60;;;4.18;;
21675;SDS011;10999;51.332;9.458;2022-08-19T10:01:20;7.68;;;3.80;;
21675;SDS011;10999;51.332;9.458;2022-08-19T10:03:50;7.22;;;3.60;;
21675;SDS011;10999;51.332;9.458;2022-08-19T10:06:20;7.75;;;3.35;;
21675;SDS011;10999;51.332;9.458;2022-08-19T10:09:08;7.82;;;3.72;;
21675;SDS011;10999;51.332;9.458;2022-08-19T10:11:39;7.93;;;3.53;;
21675;SDS011;10999;51.332;9.458;2022-08-19T10:14:19;7.65;;;3.17;;
21675;SDS011;10999;51.332;9.458;2022-08-19T10:16:48;7.60;;;3.20;;
21675;SDS011;10999;51.332;9.458;2022-08-19T10:19:15;7.65;;;3.35;;
21675;SDS011;10999;51.332;9.458;2022-08-19T10:21:51;6.10;;;3.20;;
21675;SDS011;10999;51.332;9.458;2022-08-19T10:24:18;6.60;;;3.50;;
21675;SDS011;10999;51.332;9.458;2022-08-19T10:26:46;8.55;;;3.65;;
21675;SDS011;10999;51.332;9.458;2022-08-19T10:29:21;6.50;;;3.25;;
21675;SDS011;10999;51.332;9.458;2022-08-19T10:32:01;7.25;;;3.03;;
21675;SDS011;10999;51.332;9.458;2022-08-19T10:34:35;6.75;;;3.00;;
21675;SDS011;10999;51.332;9.458;2022-08-19T10:37:14;16.58;;;3.42;;
21675;SDS011;10999;51.332;9.458;2022-08-19T10:39:54;7.30;;;2.70;;
21675;SDS011;10999;51.332;9.458;2022-08-19T10:42:21;6.68;;;3.72;;
21675;SDS011;10999;51.332;9.458;2022-08-19T10:44:48;6.05;;;2.97;;
21675;SDS011;10999;51.332;9.458;2022-08-19T10:47:17;6.32;;;3.20;;
21675;SDS011;10999;51.332;9.458;2022-08-19T10:49:54;5.68;;;2.88;;
21675;SDS011;10999;51.332;9.458;2022-08-19T10:52:40;6.38;;;3.28;;
21675;SDS011;10999;51.332;9.458;2022-08-19T10:55:15;6.95;;;3.35;;
21675;SDS011;10999;51.332;9.458;2022-08-19T10:58:02;7.32;;;3.47;;
21675;SDS011;10999;51.332;9.458;2022-08-19T11:00:30;6.70;;;3.70;;
21675;SDS011;10999;51.332;9.458;2022-08-19T11:02:57;6.95;;;3.40;;
21675;SDS011;10999;51.332;9.458;2022-08-19T11:05:24;6.65;;;2.97;;
21675;SDS011;10999;51.332;9.458;2022-08-19T11:07:50;7.10;;;2.90;;
21675;SDS011;10999;51.332;9.458;2022-08-19T11:10:18;6.00;;;3.55;;
21675;SDS011;10999;51.332;9.458;2022-08-19T11:12:47;6.57;;;2.88;;
21675;SDS011;10999;51.332;9.458;2022-08-19T11:15:14;6.43;;;3.30;;
21675;SDS011;10999;51.332;9.458;2022-08-19T11:17:41;9.65;;;3.00;;
21675;SDS011;10999;51.332;9.458;2022-08-19T11:20:13;6.38;;;3.05;;
21675;SDS011;10999;51.332;9.458;2022-08-19T11:22:40;6.45;;;2.80;;
21675;SDS011;10999;51.332;9.458;2022-08-19T11:25:09;7.18;;;3.15;;
21675;SDS011;10999;51.332;9.458;2022-08-19T11:27:37;7.50;;;3.40;;
21675;SDS011;10999;51.332;9.458;2022-08-19T11:30:09;8.75;;;4.32;;
21675;SDS011;10999;51.332;9.458;2022-08-19T11:32:39;5.35;;;2.97;;
21675;SDS011;10999;51.332;9.458;2022-08-19T11:35:10;7.15;;;3.53;;
21675;SDS011;10999;51.332;9.458;2022-08-19T11:37:37;7.43;;;3.47;;
21675;SDS011;10999;51.332;9.458;2022-08-19T11:40:05;6.32;;;2.90;;
21675;SDS011;10999;51.332;9.458;2022-08-19T11:42:32;5.57;;;3.17;;
21675;SDS011;10999;51.332;9.458;2022-08-19T11:45:18;7.88;;;2.85;;
21675;SDS011;10999;51.332;9.458;2022-08-19T11:47:44;8.15;;;3.45;;
21675;SDS011;10999;51.332;9.458;2022-08-19T11:50:13;7.38;;;3.60;;
21675;SDS011;10999;51.332;9.458;2022-08-19T11:52:41;7.00;;;3.15;;
21675;SDS011;10999;51.332;9.458;2022-08-19T11:55:08;7.05;;;3.30;;
21675;SDS011;10999;51.332;9.458;2022-08-19T11:57:35;4.82;;;2.47;;
21675;SDS011;10999;51.332;9.458;2022-08-19T12:00:03;7.20;;;2.95;;
21675;SDS011;10999;51.332;9.458;2022-08-19T12:02:31;9.23;;;3.70;;
21675;SDS011;10999;51.332;9.458;2022-08-19T12:04:58;8.70;;;3.42;;
21675;SDS011;10999;51.332;9.458;2022-08-19T12:07:31;6.13;;;2.95;;
21675;SDS011;10999;51.332;9.458;2022-08-19T12:09:59;7.68;;;3.65;;
21675;SDS011;10999;51.332;9.458;2022-08-19T12:12:26;6.35;;;2.83;;
21675;SDS011;10999;51.332;9.458;2022-08-19T12:14:54;7.22;;;3.00;;
21675;SDS011;10999;51.332;9.458;2022-08-19T12:17:24;5.78;;;2.92;;
21675;SDS011;10999;51.332;9.458;2022-08-19T12:19:53;6.47;;;3.03;;
21675;SDS011;10999;51.332;9.458;2022-08-19T12:22:20;5.13;;;2.60;;
21675;SDS011;10999;51.332;9.458;2022-08-19T12:24:47;5.93;;;2.70;;
21675;SDS011;10999;51.332;9.458;2022-08-19T12:27:16;7.53;;;2.83;;
21675;SDS011;10999;51.332;9.458;2022-08-19T12:30:04;5.40;;;2.83;;
21675;SDS011;10999;51.332;9.458;2022-08-19T12:32:32;5.82;;;3.33;;
21675;SDS011;10999;51.332;9.458;2022-08-19T12:34:59;5.63;;;2.92;;
21675;SDS011;10999;51.332;9.458;2022-08-19T12:37:27;5.63;;;2.90;;
21675;SDS011;10999;51.332;9.458;2022-08-19T12:39:53;5.57;;;3.00;;
21675;SDS011;10999;51.332;9.458;2022-08-19T12:42:20;5.50;;;2.42;;
21675;SDS011;10999;51.332;9.458;2022-08-19T12:44:48;6.20;;;3.00;;
21675;SDS011;10999;51.332;9.458;2022-08-19T12:47:15;6.47;;;2.40;;
21675;SDS011;10999;51.332;9.458;2022-08-19T12:49:44;4.78;;;2.55;;
21675;SDS011;10999;51.332;9.458;2022-08-19T12:52:20;6.07;;;2.53;;
21675;SDS011;10999;51.332;9.458;2022-08-19T12:54:49;6.47;;;2.67;;
21675;SDS011;10999;51.332;9.458;2022-08-19T12:57:20;5.70;;;2.72;;
21675;SDS011;10999;51.332;9.458;2022-08-19T12:59:56;6.45;;;2.42;;
21675;SDS011;10999;51.332;9.458;2022-08-19T13:02:23;5.30;;;2.75;;
21675;SDS011;10999;51.332;9.458;2022-08-19T13:04:49;4.40;;;2.58;;
21675;SDS011;10999;51.332;9.458;2022-08-19T13:07:16;5.50;;;2.35;;
21675;SDS011;10999;51.332;9.458;2022-08-19T13:09:43;4.13;;;2.20;;
21675;SDS011;10999;51.332;9.458;2022-08-19T13:12:10;5.70;;;2.08;;
21675;SDS011;10999;51.332;9.458;2022-08-19T13:14:39;4.57;;;2.03;;
21675;SDS011;10999;51.332;9.458;2022-08-19T13:17:06;4.65;;;2.33;;
21675;SDS011;10999;51.332;9.458;2022-08-19T13:19:35;4.80;;;2.58;;
21675;SDS011;10999;51.332;9.458;2022-08-19T13:22:03;5.72;;;2.58;;
21675;SDS011;10999;51.332;9.458;2022-08-19T13:24:38;4.93;;;2.25;;
21675;SDS011;10999;51.332;9.458;2022-08-19T13:27:11;9.02;;;2.55;;
21675;SDS011;10999;51.332;9.458;2022-08-19T13:29:39;4.78;;;2.25;;
21675;SDS011;10999;51.332;9.458;2022-08-19T13:32:25;4.55;;;2.15;;
21675;SDS011;10999;51.332;9.458;2022-08-19T13:35:11;5.15;;;2.30;;
21675;SDS011;10999;51.332;9.458;2022-08-19T13:37:42;4.97;;;2.20;;
21675;SDS011;10999;51.332;9.458;2022-08-19T13:40:11;4.90;;;2.40;;
21675;SDS011;10999;51.332;9.458;2022-08-19T13:42:50;5.25;;;2.33;;
21675;SDS011;10999;51.332;9.458;2022-08-19T13:45:20;6.95;;;2.30;;
21675;SDS011;10999;51.332;9.458;2022-08-19T13:47:49;3.90;;;1.90;;
21675;SDS011;10999;51.332;9.458;2022-08-19T13:50:25;4.70;;;2.22;;
21675;SDS011;10999;51.332;9.458;2022-08-19T13:52:54;5.32;;;1.95;;
21675;SDS011;10999;51.332;9.458;2022-08-19T13:55:22;4.78;;;2.20;;
21675;SDS011;10999;51.332;9.458;2022-08-19T13:57:54;5.68;;;2.40;;
21675;SDS011;10999;51.332;9.458;2022-08-19T14:00:24;6.07;;;2.92;;
21675;SDS011;10999;51.332;9.458;2022-08-19T14:02:53;5.97;;;2.90;;
21675;SDS011;10999;51.332;9.458;2022-08-19T14:05:21;6.28;;;2.67;;
21675;SDS011;10999;51.332;9.458;2022-08-19T14:07:49;4.75;;;2.10;;
21675;SDS011;10999;51.332;9.458;2022-08-19T14:10:16;7.68;;;2.33;;
21675;SDS011;10999;51.332;9.458;2022-08-19T14:12:44;6.53;;;2.88;;
21675;SDS011;10999;51.332;9.458;2022-08-19T14:15:12;7.25;;;2.60;;
21675;SDS011;10999;51.332;9.458;2022-08-19T14:17:41;5.00;;;2.70;;
21675;SDS011;10999;51.332;9.458;2022-08-19T14:20:10;6.88;;;2.83;;
21675;SDS011;10999;51.332;9.458;2022-08-19T14:22:44;5.55;;;2.80;;
21675;SDS011;10999;51.332;9.458;2022-08-19T14:25:13;5.00;;;2.33;;
21675;SDS011;10999;51.332;9.458;2022-08-19T14:27:43;5.80;;;3.00;;
21675;SDS011;10999;51.332;9.458;2022-08-19T14:30:12;4.38;;;2.50;;
21675;SDS011;10999;51.332;9.458;2022-08-19T14:35:09;6.15;;;2.22;;
21675;SDS011;10999;51.332;9.458;2022-08-19T14:37:38;4.70;;;2.45;;
21675;SDS011;10999;51.332;9.458;2022-08-19T14:40:22;5.25;;;2.28;;
21675;SDS011;10999;51.332;9.458;2022-08-19T14:42:56;5.03;;;2.17;;
21675;SDS011;10999;51.332;9.458;2022-08-19T14:45:26;4.40;;;2.10;;
21675;SDS011;10999;51.332;9.458;2022-08-19T14:47:53;5.20;;;2.00;;
21675;SDS011;10999;51.332;9.458;2022-08-19T14:50:21;5.30;;;2.30;;
21675;SDS011;10999;51.332;9.458;2022-08-19T14:52:49;3.90;;;2.00;;
21675;SDS011;10999;51.332;9.458;2022-08-19T14:55:17;4.32;;;2.00;;
21675;SDS011;10999;51.332;9.458;2022-08-19T14:57:44;4.90;;;2.40;;
21675;SDS011;10999;51.332;9.458;2022-08-19T15:00:11;4.03;;;2.13;;
21675;SDS011;10999;51.332;9.458;2022-08-19T15:02:42;5.00;;;2.80;;
21675;SDS011;10999;51.332;9.458;2022-08-19T15:05:10;5.15;;;2.40;;
21675;SDS011;10999;51.332;9.458;2022-08-19T15:07:38;6.13;;;2.15;;
21675;SDS011;10999;51.332;9.458;2022-08-19T15:10:06;5.35;;;2.25;;
21675;SDS011;10999;51.332;9.458;2022-08-19T15:12:34;5.18;;;2.30;;
21675;SDS011;10999;51.332;9.458;2022-08-19T15:15:01;6.30;;;3.17;;